createdAt,value
2022-10-10T00:00:50.151Z,12.61
2022-10-10T00:03:19.178Z,12.48
2022-10-10T00:05:47.785Z,12.45
2022-10-10T00:08:15.765Z,12.42
2022-10-10T00:10:43.648Z,12.37
2022-10-10T00:13:11.580Z,12.41
2022-10-10T00:15:42.231Z,12.45
2022-10-10T00:18:11.664Z,12.38
2022-10-10T00:20:39.640Z,12.39
2022-10-10T00:23:08.125Z,12.31
2022-10-10T00:25:36.136Z,12.23
2022-10-10T00:28:05.251Z,12.36
2022-10-10T00:30:33.810Z,12.31
2022-10-10T00:33:03.066Z,12.35
2022-10-10T00:35:30.956Z,12.36
2022-10-10T00:37:58.943Z,12.26
2022-10-10T00:40:27.613Z,12.27
2022-10-10T00:42:55.545Z,12.30
2022-10-10T00:45:27.980Z,12.25
2022-10-10T00:48:01.945Z,12.16
2022-10-10T00:50:34.521Z,12.08
2022-10-10T00:53:04.580Z,11.97
2022-10-10T00:55:32.524Z,12.01
2022-10-10T00:58:00.774Z,11.93
2022-10-10T01:00:28.689Z,11.99
2022-10-10T01:02:56.548Z,12.02
2022-10-10T01:05:25.269Z,12.08
2022-10-10T01:07:54.830Z,11.99
2022-10-10T01:10:24.768Z,12.01
2022-10-10T01:13:09.016Z,11.96
2022-10-10T01:15:48.808Z,11.86
2022-10-10T01:18:26.505Z,11.85
2022-10-10T01:21:01.967Z,11.83
2022-10-10T01:23:46.464Z,11.78
2022-10-10T01:26:37.049Z,11.84
2022-10-10T01:29:11.455Z,11.87
2022-10-10T01:31:43.370Z,11.80
2022-10-10T01:34:20.402Z,11.72
2022-10-10T01:36:57.840Z,11.62
2022-10-10T01:39:36.865Z,11.52
2022-10-10T01:42:11.553Z,11.45
2022-10-10T01:44:45.117Z,11.42
2022-10-10T01:47:13.528Z,11.40
2022-10-10T01:49:44.073Z,11.37
2022-10-10T01:52:26.520Z,11.40
2022-10-10T01:55:04.929Z,11.25
2022-10-10T01:57:42.287Z,11.27
2022-10-10T02:00:13.782Z,11.25
2022-10-10T02:02:49.653Z,11.32
2022-10-10T02:05:25.675Z,11.24
2022-10-10T02:07:58.463Z,11.25
2022-10-10T02:10:32.082Z,11.22
2022-10-10T02:13:02.983Z,11.21
2022-10-10T02:15:38.950Z,11.03
2022-10-10T02:18:11.356Z,11.01
2022-10-10T02:20:39.426Z,11.01
2022-10-10T02:23:09.375Z,10.92
2022-10-10T02:25:41.096Z,10.95
2022-10-10T02:28:14.670Z,10.92
2022-10-10T02:30:47.247Z,10.84
2022-10-10T02:33:20.614Z,10.88
2022-10-10T02:35:51.926Z,10.85
2022-10-10T02:38:21.266Z,10.85
2022-10-10T02:40:50.719Z,10.87
2022-10-10T02:43:19.577Z,10.81
2022-10-10T02:45:50.204Z,10.87
2022-10-10T02:48:18.432Z,10.90
2022-10-10T02:50:46.547Z,10.88
2022-10-10T02:53:14.440Z,10.85
2022-10-10T02:55:42.336Z,10.87
2022-10-10T02:58:10.253Z,10.87
2022-10-10T03:00:38.150Z,10.88
2022-10-10T03:03:07.634Z,10.90
2022-10-10T03:05:35.506Z,10.99
2022-10-10T03:08:05.911Z,10.89
2022-10-10T03:10:37.208Z,10.94
2022-10-10T03:13:05.127Z,10.94
2022-10-10T03:15:33.236Z,10.93
2022-10-10T03:18:01.436Z,10.90
2022-10-10T03:20:30.744Z,10.87
2022-10-10T03:22:58.654Z,10.86
2022-10-10T03:25:26.555Z,10.88
2022-10-10T03:27:54.451Z,10.82
2022-10-10T03:30:22.471Z,10.84
2022-10-10T03:32:50.589Z,10.84
2022-10-10T03:35:18.767Z,10.81
2022-10-10T03:37:48.044Z,10.82
2022-10-10T03:40:16.000Z,10.73
2022-10-10T03:42:43.941Z,10.63
2022-10-10T03:45:12.052Z,10.58
2022-10-10T03:47:40.172Z,10.54
2022-10-10T03:50:09.000Z,10.39
2022-10-10T03:52:37.108Z,10.35
2022-10-10T03:55:07.566Z,10.36
2022-10-10T03:57:35.508Z,10.31
2022-10-10T04:00:03.548Z,10.29
2022-10-10T04:02:31.544Z,10.20
2022-10-10T04:04:59.444Z,10.24
2022-10-10T04:07:28.308Z,10.22
2022-10-10T04:09:56.467Z,10.21
2022-10-10T04:12:25.770Z,10.06
2022-10-10T04:14:53.739Z,10.21
2022-10-10T04:17:21.769Z,10.11
2022-10-10T04:19:49.755Z,10.08
2022-10-10T04:22:17.697Z,10.07
2022-10-10T04:24:45.770Z,10.11
2022-10-10T04:27:13.732Z,10.02
2022-10-10T04:29:43.227Z,10.07
2022-10-10T04:32:11.144Z,10.12
2022-10-10T04:34:39.078Z,10.07
2022-10-10T04:37:07.017Z,10.07
2022-10-10T04:39:35.020Z,10.07
2022-10-10T04:42:03.095Z,10.10
2022-10-10T04:44:31.251Z,10.10
2022-10-10T04:47:00.664Z,10.20
2022-10-10T04:49:28.745Z,10.21
2022-10-10T04:51:56.689Z,10.23
2022-10-10T04:54:24.661Z,10.26
2022-10-10T04:56:52.616Z,10.23
2022-10-10T04:59:20.509Z,10.35
2022-10-10T05:01:48.452Z,10.46
2022-10-10T05:04:17.793Z,10.43
2022-10-10T05:06:45.786Z,10.36
2022-10-10T05:09:13.927Z,10.28
2022-10-10T05:11:41.891Z,10.28
2022-10-10T05:14:09.868Z,10.34
2022-10-10T05:16:38.702Z,10.36
2022-10-10T05:19:06.836Z,10.37
2022-10-10T05:21:36.341Z,10.34
2022-10-10T05:24:04.499Z,10.27
2022-10-10T05:26:32.401Z,10.29
2022-10-10T05:29:01.662Z,10.35
2022-10-10T05:31:29.942Z,10.39
2022-10-10T05:33:57.851Z,10.28
2022-10-10T05:36:25.884Z,10.35
2022-10-10T05:38:55.316Z,10.43
2022-10-10T05:41:23.366Z,10.48
2022-10-10T05:43:51.344Z,10.52
2022-10-10T05:46:20.398Z,10.51
2022-10-10T05:48:48.603Z,10.59
2022-10-10T05:51:16.546Z,10.53
2022-10-10T05:53:44.473Z,10.67
2022-10-10T05:56:15.480Z,10.76
2022-10-10T05:58:43.937Z,10.86
2022-10-10T06:01:12.179Z,10.86
2022-10-10T06:03:40.178Z,10.98
2022-10-10T06:06:08.844Z,11.08
2022-10-10T06:08:37.027Z,11.12
2022-10-10T06:11:08.055Z,11.17
2022-10-10T06:13:39.398Z,11.35
2022-10-10T06:16:08.171Z,11.45
2022-10-10T06:18:36.210Z,11.54
2022-10-10T06:21:06.679Z,11.61
2022-10-10T06:23:35.570Z,11.71
2022-10-10T06:26:04.371Z,11.91
2022-10-10T06:28:32.478Z,12.01
2022-10-10T06:31:03.462Z,12.12
2022-10-10T06:33:31.481Z,12.18
2022-10-10T06:35:59.507Z,12.35
2022-10-10T06:38:28.489Z,12.49
2022-10-10T06:41:00.310Z,12.53
2022-10-10T06:43:28.490Z,12.60
2022-10-10T06:45:56.458Z,12.78
2022-10-10T06:48:26.225Z,12.84
2022-10-10T06:50:58.812Z,12.93
2022-10-10T06:53:27.777Z,13.09
2022-10-10T06:55:56.384Z,13.16
2022-10-10T06:58:26.110Z,13.25
2022-10-10T07:00:55.002Z,13.36
2022-10-10T07:03:23.428Z,13.51
2022-10-10T07:05:54.521Z,13.53
2022-10-10T07:08:23.310Z,13.70
2022-10-10T07:10:51.305Z,13.59
2022-10-10T07:13:19.897Z,13.64
2022-10-10T07:15:48.212Z,13.80
2022-10-10T07:18:20.130Z,13.86
2022-10-10T07:20:48.216Z,13.89
2022-10-10T07:23:19.007Z,13.85
2022-10-10T07:25:47.177Z,14.00
2022-10-10T07:28:15.216Z,14.07
2022-10-10T07:30:44.298Z,14.16
2022-10-10T07:33:12.833Z,14.24
2022-10-10T07:35:41.807Z,14.48
2022-10-10T07:38:11.824Z,14.63
2022-10-10T07:40:42.475Z,14.62
2022-10-10T07:43:10.447Z,14.63
2022-10-10T07:45:38.753Z,14.76
2022-10-10T07:48:06.947Z,14.80
2022-10-10T07:50:35.081Z,14.78
2022-10-10T07:53:03.306Z,14.79
2022-10-10T07:55:31.232Z,14.97
2022-10-10T07:58:03.001Z,15.11
2022-10-10T08:00:31.419Z,15.16
2022-10-10T08:02:59.415Z,15.36
2022-10-10T08:05:27.568Z,15.55
2022-10-10T08:07:55.601Z,15.67
2022-10-10T08:10:23.650Z,15.82
2022-10-10T08:12:51.749Z,15.86
2022-10-10T08:15:22.211Z,16.03
2022-10-10T08:17:50.402Z,16.15
2022-10-10T08:20:18.567Z,16.22
2022-10-10T08:22:46.567Z,16.38
2022-10-10T08:25:14.588Z,16.54
2022-10-10T08:27:42.636Z,16.75
2022-10-10T08:30:11.345Z,16.90
2022-10-10T08:32:40.710Z,17.10
2022-10-10T08:35:09.122Z,17.18
2022-10-10T08:37:37.600Z,17.32
2022-10-10T08:40:06.536Z,17.49
2022-10-10T08:42:43.705Z,17.60
2022-10-10T08:45:19.492Z,17.81
2022-10-10T08:47:52.594Z,17.78
2022-10-10T08:50:24.930Z,17.88
2022-10-10T08:52:58.274Z,17.93
2022-10-10T08:55:33.182Z,18.03
2022-10-10T08:58:06.794Z,18.07
2022-10-10T09:00:40.995Z,18.25
2022-10-10T09:03:21.597Z,18.40
2022-10-10T09:06:05.286Z,18.49
2022-10-10T09:08:46.808Z,18.50
2022-10-10T09:11:30.019Z,18.48
2022-10-10T09:14:12.994Z,18.53
2022-10-10T09:16:48.255Z,18.63
2022-10-10T09:19:32.723Z,18.77
2022-10-10T09:22:06.178Z,18.87
2022-10-10T09:24:42.659Z,18.88
2022-10-10T09:27:15.304Z,19.00
2022-10-10T09:29:49.046Z,19.03
2022-10-10T09:32:22.056Z,19.08
2022-10-10T09:34:56.280Z,19.18
2022-10-10T09:37:46.285Z,19.25
2022-10-10T09:40:23.764Z,19.23
2022-10-10T09:42:52.389Z,19.32
2022-10-10T09:45:21.994Z,19.09
2022-10-10T09:47:54.056Z,19.15
2022-10-10T09:50:24.079Z,19.09
2022-10-10T09:52:53.253Z,19.13
2022-10-10T09:55:27.980Z,19.10
2022-10-10T09:57:58.886Z,19.12
2022-10-10T10:00:33.778Z,19.22
2022-10-10T10:03:13.253Z,19.28
2022-10-10T10:05:45.357Z,19.27
2022-10-10T10:08:37.562Z,19.20
2022-10-10T10:11:06.411Z,19.34
2022-10-10T10:13:36.384Z,19.31
2022-10-10T10:16:08.041Z,19.28
2022-10-10T10:18:41.705Z,19.40
2022-10-10T10:21:17.714Z,19.62
2022-10-10T10:23:52.081Z,19.64
2022-10-10T10:26:23.651Z,19.72
2022-10-10T10:28:53.139Z,19.79
2022-10-10T10:31:32.140Z,19.93
2022-10-10T10:34:11.646Z,19.95
2022-10-10T10:36:51.898Z,19.98
2022-10-10T10:39:34.875Z,19.84
2022-10-10T10:42:11.804Z,19.90
2022-10-10T10:44:44.685Z,20.02
2022-10-10T10:47:28.034Z,19.91
2022-10-10T10:50:08.496Z,20.02
2022-10-10T10:52:52.250Z,19.80
2022-10-10T10:55:30.687Z,19.72
2022-10-10T11:01:38.735Z,19.74
2022-10-10T11:05:16.047Z,19.85
2022-10-10T11:07:20.466Z,19.75
2022-10-10T11:09:56.507Z,19.65
2022-10-10T11:12:41.079Z,19.74
2022-10-10T11:15:18.121Z,19.68
2022-10-10T11:17:51.521Z,19.73
2022-10-10T11:20:26.972Z,19.67
2022-10-10T11:23:05.269Z,19.70
2022-10-10T11:25:44.223Z,19.73
2022-10-10T11:28:17.493Z,19.67
2022-10-10T11:30:50.893Z,19.67
2022-10-10T11:33:24.628Z,19.58
2022-10-10T11:35:57.133Z,19.58
2022-10-10T11:38:32.261Z,19.52
2022-10-10T11:41:07.750Z,19.67
2022-10-10T11:43:44.236Z,19.72
2022-10-10T11:46:25.890Z,19.75
2022-10-10T11:49:01.545Z,19.69
2022-10-10T11:51:39.430Z,19.82
2022-10-10T11:54:15.218Z,19.84
2022-10-10T11:56:47.606Z,19.93
2022-10-10T11:59:24.084Z,19.97
2022-10-10T12:04:36.427Z,20.12
2022-10-10T12:07:08.535Z,20.03
2022-10-10T12:09:41.387Z,19.92
2022-10-10T12:12:15.865Z,19.86
2022-10-10T12:14:54.057Z,19.94
2022-10-10T12:17:25.973Z,20.03
2022-10-10T12:19:54.284Z,20.28
2022-10-10T12:22:28.621Z,20.66
2022-10-10T12:25:33.141Z,20.95
2022-10-10T12:28:23.612Z,21.17
2022-10-10T12:31:20.161Z,21.27
2022-10-10T12:34:16.561Z,21.30
2022-10-10T12:37:18.519Z,21.91
2022-10-10T12:40:19.080Z,22.79
2022-10-10T12:43:22.318Z,23.14
2022-10-10T12:46:09.316Z,23.43
2022-10-10T12:48:37.961Z,23.53
2022-10-10T12:51:06.639Z,23.67
2022-10-10T12:53:35.667Z,24.03
2022-10-10T12:56:04.702Z,24.23
2022-10-10T12:58:38.541Z,23.75
2022-10-10T13:01:20.784Z,23.69
2022-10-10T13:03:50.230Z,23.67
2022-10-10T13:06:27.875Z,23.80
2022-10-10T13:08:57.069Z,23.89
2022-10-10T13:11:25.018Z,24.15
2022-10-10T13:13:56.271Z,23.98
2022-10-10T13:16:28.733Z,23.35
2022-10-10T13:19:01.442Z,23.15
2022-10-10T13:21:32.390Z,22.77
2022-10-10T13:24:03.814Z,22.41
2022-10-10T13:26:35.653Z,22.29
2022-10-10T13:29:19.539Z,22.18
2022-10-10T13:31:48.133Z,22.13
2022-10-10T13:34:24.877Z,21.97
2022-10-10T13:36:56.911Z,21.63
2022-10-10T13:39:25.695Z,21.36
2022-10-10T13:41:54.957Z,21.55
2022-10-10T13:44:26.809Z,21.58
2022-10-10T13:46:54.766Z,21.64
2022-10-10T13:49:26.010Z,21.30
2022-10-10T13:52:05.955Z,21.47
2022-10-10T13:54:45.590Z,21.48
2022-10-10T13:57:17.632Z,21.53
2022-10-10T13:59:51.571Z,21.30
2022-10-10T14:02:25.338Z,21.19
2022-10-10T14:04:55.301Z,21.25
2022-10-10T14:07:25.366Z,20.94
2022-10-10T14:09:56.986Z,20.86
2022-10-10T14:12:29.814Z,21.03
2022-10-10T14:15:00.675Z,20.77
2022-10-10T14:17:30.236Z,20.70
2022-10-10T14:19:58.511Z,20.54
2022-10-10T14:22:26.860Z,20.53
2022-10-10T14:24:54.977Z,20.37
2022-10-10T14:27:26.250Z,20.34
2022-10-10T14:29:55.918Z,20.19
2022-10-10T14:32:26.977Z,20.25
2022-10-10T14:34:55.009Z,20.41
2022-10-10T14:37:25.858Z,20.38
2022-10-10T14:39:54.785Z,20.30
2022-10-10T14:42:24.118Z,20.37
2022-10-10T14:44:52.459Z,20.30
2022-10-10T14:47:22.557Z,20.34
2022-10-10T14:49:53.481Z,20.03
2022-10-10T14:52:21.680Z,20.00
2022-10-10T14:54:49.647Z,19.96
2022-10-10T14:57:22.383Z,19.85
2022-10-10T14:59:50.476Z,19.75
2022-10-10T15:02:20.718Z,19.59
2022-10-10T15:04:48.977Z,19.52
2022-10-10T15:07:19.666Z,19.43
2022-10-10T15:10:31.728Z,19.24
2022-10-10T15:12:39.515Z,19.06
2022-10-10T15:15:09.278Z,19.13
2022-10-10T15:17:37.325Z,18.95
2022-10-10T15:20:07.243Z,18.97
2022-10-10T15:22:37.279Z,18.81
2022-10-10T15:25:06.026Z,18.75
2022-10-10T15:27:34.103Z,18.66
2022-10-10T15:30:02.256Z,18.54
2022-10-10T15:32:31.130Z,18.50
2022-10-10T15:34:59.633Z,18.33
2022-10-10T15:37:28.463Z,18.12
2022-10-10T15:39:58.010Z,18.01
2022-10-10T15:42:25.989Z,17.99
2022-10-10T15:44:54.079Z,17.82
2022-10-10T15:47:22.303Z,17.66
2022-10-10T15:49:50.662Z,17.66
2022-10-10T15:52:18.946Z,17.64
2022-10-10T15:54:49.808Z,17.46
2022-10-10T15:57:20.209Z,17.39
2022-10-10T15:59:48.426Z,17.31
2022-10-10T16:02:17.019Z,17.18
2022-10-10T16:04:45.779Z,17.12
2022-10-10T16:07:31.706Z,17.01
2022-10-10T16:10:01.322Z,16.98
2022-10-10T16:12:31.225Z,16.94
2022-10-10T16:15:03.377Z,16.91
2022-10-10T16:17:34.150Z,16.88
2022-10-10T16:20:02.110Z,16.83
2022-10-10T16:22:30.092Z,16.75
2022-10-10T16:27:50.239Z,16.48
2022-10-10T16:30:19.951Z,16.52
2022-10-10T16:32:48.131Z,16.37
2022-10-10T16:35:16.172Z,16.42
2022-10-10T16:37:44.537Z,16.38
2022-10-10T16:40:13.136Z,16.28
2022-10-10T16:42:41.349Z,16.32
2022-10-10T16:45:43.853Z,16.30
2022-10-10T16:48:13.271Z,16.22
2022-10-10T16:50:42.177Z,16.08
2022-10-10T16:53:11.372Z,16.10
2022-10-10T16:55:43.291Z,16.00
2022-10-10T16:58:11.425Z,16.02
2022-10-10T17:00:44.001Z,15.89
2022-10-10T17:03:12.324Z,15.90
2022-10-10T17:05:40.350Z,15.95
2022-10-10T17:08:08.333Z,15.89
2022-10-10T17:10:36.325Z,15.93
2022-10-10T17:13:04.920Z,15.94
2022-10-10T17:15:33.028Z,15.89
2022-10-10T17:18:05.541Z,15.89
2022-10-10T17:20:35.768Z,15.87
2022-10-10T17:23:03.863Z,15.85
2022-10-10T17:25:32.121Z,15.72
2022-10-10T17:28:00.288Z,15.75
2022-10-10T17:30:28.327Z,15.62
2022-10-10T17:32:56.401Z,15.68
2022-10-10T17:35:25.769Z,15.64
2022-10-10T17:37:53.807Z,15.52
2022-10-10T17:40:23.763Z,15.48
2022-10-10T17:42:51.734Z,15.47
2022-10-10T17:45:19.888Z,15.40
2022-10-10T17:47:47.951Z,15.47
2022-10-10T17:50:16.108Z,15.45
2022-10-10T17:52:45.883Z,15.50
2022-10-10T17:55:13.939Z,15.36
2022-10-10T17:57:45.662Z,15.41
2022-10-10T18:00:16.735Z,15.41
2022-10-10T18:02:44.783Z,15.43
2022-10-10T18:05:12.948Z,15.42
2022-10-10T18:07:42.142Z,15.40
2022-10-10T18:10:11.785Z,15.40
2022-10-10T18:12:40.038Z,15.41
2022-10-10T18:15:09.782Z,15.36
2022-10-10T18:17:37.924Z,15.28
2022-10-10T18:20:06.524Z,15.33
2022-10-10T18:22:34.508Z,15.31
2022-10-10T18:25:02.875Z,15.07
2022-10-10T18:27:32.274Z,15.24
2022-10-10T18:30:00.348Z,15.23
2022-10-10T18:32:28.429Z,15.24
2022-10-10T18:34:56.910Z,15.18
2022-10-10T18:37:25.170Z,15.22
2022-10-10T18:39:53.177Z,15.25
2022-10-10T18:42:21.551Z,15.28
2022-10-10T18:44:53.695Z,15.20
2022-10-10T18:47:24.274Z,15.33
2022-10-10T18:49:52.945Z,15.34
2022-10-10T18:52:21.333Z,15.32
2022-10-10T18:54:50.653Z,15.37
2022-10-10T18:57:18.826Z,15.36
2022-10-10T18:59:46.891Z,15.40
2022-10-10T19:02:16.345Z,15.24
2022-10-10T19:04:45.241Z,15.31
2022-10-10T19:07:13.239Z,15.31
2022-10-10T19:09:41.299Z,15.30
2022-10-10T19:12:09.356Z,15.35
2022-10-10T19:14:37.552Z,15.27
2022-10-10T19:17:05.690Z,15.21
2022-10-10T19:19:36.892Z,15.21
2022-10-10T19:22:04.853Z,15.15
2022-10-10T19:24:33.041Z,15.15
2022-10-10T19:27:01.245Z,15.13
2022-10-10T19:29:29.644Z,15.08
2022-10-10T19:31:57.740Z,15.07
2022-10-10T19:34:25.830Z,14.97
2022-10-10T19:36:55.215Z,15.01
2022-10-10T19:39:23.208Z,14.99
2022-10-10T19:41:51.671Z,14.90
2022-10-10T19:44:20.075Z,14.98
2022-10-10T19:46:48.508Z,15.01
2022-10-10T19:49:21.014Z,14.94
2022-10-10T19:51:49.493Z,14.94
2022-10-10T19:54:22.030Z,14.87
2022-10-10T19:56:51.116Z,14.99
2022-10-10T19:59:19.779Z,14.93
2022-10-10T20:01:48.539Z,14.87
2022-10-10T20:04:16.959Z,14.93
2022-10-10T20:06:44.955Z,14.91
2022-10-10T20:09:13.220Z,14.83
2022-10-10T20:11:42.598Z,14.77
2022-10-10T20:14:11.378Z,14.83
2022-10-10T20:16:39.546Z,14.83
2022-10-10T20:19:07.628Z,14.87
2022-10-10T20:21:35.921Z,14.79
2022-10-10T20:24:07.420Z,14.86
2022-10-10T20:26:36.383Z,14.86
2022-10-10T20:29:06.910Z,14.87
2022-10-10T20:31:37.462Z,14.76
2022-10-10T20:34:08.521Z,14.75
2022-10-10T20:36:37.594Z,14.65
2022-10-10T20:39:08.102Z,14.66
2022-10-10T20:41:38.454Z,14.68
2022-10-10T20:44:09.801Z,14.55
2022-10-10T20:46:40.473Z,14.63
2022-10-10T20:49:12.622Z,14.63
2022-10-10T20:51:40.945Z,14.67
2022-10-10T20:54:09.420Z,14.63
2022-10-10T20:56:37.473Z,14.60
2022-10-10T20:59:07.430Z,14.61
2022-10-10T21:01:35.839Z,14.56
2022-10-10T21:04:04.275Z,14.61
2022-10-10T21:06:34.442Z,14.61
2022-10-10T21:09:05.545Z,14.60
2022-10-10T21:11:33.831Z,14.57
2022-10-10T21:14:02.876Z,14.65
2022-10-10T21:16:34.298Z,14.65
2022-10-10T21:19:02.949Z,14.61
2022-10-10T21:21:32.760Z,14.55
2022-10-10T21:24:00.997Z,14.54
2022-10-10T21:26:30.505Z,14.51
2022-10-10T21:28:59.239Z,14.46
2022-10-10T21:31:29.914Z,14.40
2022-10-10T21:34:02.221Z,14.37
2022-10-10T21:36:31.311Z,14.38
2022-10-10T21:39:00.544Z,14.40
2022-10-10T21:41:29.159Z,14.39
2022-10-10T21:43:59.821Z,14.39
2022-10-10T21:46:35.564Z,14.34
2022-10-10T21:49:07.911Z,14.33
2022-10-10T21:51:38.030Z,14.34
2022-10-10T21:54:07.359Z,14.37
2022-10-10T21:56:35.786Z,14.26
2022-10-10T21:59:04.492Z,14.30
2022-10-10T22:01:33.417Z,14.27
2022-10-10T22:04:02.602Z,14.22
2022-10-10T22:06:33.062Z,14.23
2022-10-10T22:09:02.340Z,14.16
2022-10-10T22:11:32.360Z,14.17
2022-10-10T22:14:02.485Z,14.17
2022-10-10T22:16:31.372Z,14.09
2022-10-10T22:18:59.931Z,13.99
2022-10-10T22:21:31.623Z,14.00
2022-10-10T22:24:02.657Z,13.91
2022-10-10T22:26:31.660Z,13.88
2022-10-10T22:28:59.809Z,13.93
2022-10-10T22:31:29.281Z,13.99
2022-10-10T22:33:57.922Z,14.02
2022-10-10T22:36:25.862Z,14.04
2022-10-10T22:38:53.856Z,14.00
2022-10-10T22:41:23.297Z,14.00
2022-10-10T22:43:51.337Z,14.07
2022-10-10T22:46:19.433Z,14.12
2022-10-10T22:48:47.601Z,14.10
2022-10-10T22:51:18.137Z,14.07
2022-10-10T22:53:47.574Z,14.07
2022-10-10T22:56:19.200Z,14.12
2022-10-10T22:58:51.532Z,14.06
2022-10-10T23:01:21.560Z,14.05
2022-10-10T23:03:49.755Z,14.11
2022-10-10T23:06:17.840Z,14.15
2022-10-10T23:08:45.912Z,14.15
2022-10-10T23:11:13.863Z,14.22
2022-10-10T23:13:41.817Z,14.27
2022-10-10T23:16:12.187Z,14.22
2022-10-10T23:18:40.180Z,14.19
2022-10-10T23:21:08.054Z,14.21
2022-10-10T23:23:35.990Z,14.20
2022-10-10T23:26:07.023Z,14.25
2022-10-10T23:28:35.633Z,14.22
2022-10-10T23:31:05.969Z,14.27
2022-10-10T23:33:37.106Z,14.11
2022-10-10T23:36:08.721Z,14.25
2022-10-10T23:38:37.398Z,14.12
2022-10-10T23:41:05.483Z,14.09
2022-10-10T23:43:33.537Z,14.10
2022-10-10T23:46:02.013Z,14.07
2022-10-10T23:48:30.303Z,14.09
2022-10-10T23:50:59.699Z,14.06
2022-10-10T23:53:27.707Z,14.09
2022-10-10T23:55:55.968Z,14.07
2022-10-10T23:58:23.980Z,14.06
